sensor_id;sensor_type;location;lat;lon;timestamp;P1;durP1;ratioP1;P2;durP2;ratioP2
44850;SDS011;30583;48.714;9.386;2023-02-04T00:00:07;5.25;;;3.30;;
44850;SDS011;30583;48.714;9.386;2023-02-04T00:02:33;5.00;;;2.90;;
44850;SDS011;30583;48.714;9.386;2023-02-04T00:04:59;7.32;;;3.10;;
44850;SDS011;30583;48.714;9.386;2023-02-04T00:07:25;4.60;;;2.63;;
44850;SDS011;30583;48.714;9.386;2023-02-04T00:09:50;5.22;;;2.80;;
44850;SDS011;30583;48.714;9.386;2023-02-04T00:12:16;4.05;;;2.67;;
44850;SDS011;30583;48.714;9.386;2023-02-04T00:14:41;5.65;;;2.90;;
44850;SDS011;30583;48.714;9.386;2023-02-04T00:17:07;5.63;;;2.83;;
44850;SDS011;30583;48.714;9.386;2023-02-04T00:19:34;7.43;;;2.78;;
44850;SDS011;30583;48.714;9.386;2023-02-04T00:22:00;4.35;;;2.42;;
44850;SDS011;30583;48.714;9.386;2023-02-04T00:24:27;3.78;;;2.03;;
44850;SDS011;30583;48.714;9.386;2023-02-04T00:26:54;4.60;;;2.10;;
44850;SDS011;30583;48.714;9.386;2023-02-04T00:29:19;3.45;;;2.45;;
44850;SDS011;30583;48.714;9.386;2023-02-04T00:31:45;3.45;;;2.22;;
44850;SDS011;30583;48.714;9.386;2023-02-04T00:34:10;2.88;;;2.10;;
44850;SDS011;30583;48.714;9.386;2023-02-04T00:36:36;2.65;;;1.95;;
44850;SDS011;30583;48.714;9.386;2023-02-04T00:39:01;4.63;;;1.98;;
44850;SDS011;30583;48.714;9.386;2023-02-04T00:41:27;2.88;;;1.95;;
44850;SDS011;30583;48.714;9.386;2023-02-04T00:43:53;3.85;;;2.03;;
44850;SDS011;30583;48.714;9.386;2023-02-04T00:46:18;3.17;;;2.08;;
44850;SDS011;30583;48.714;9.386;2023-02-04T00:48:44;3.00;;;1.90;;
44850;SDS011;30583;48.714;9.386;2023-02-04T00:51:09;3.70;;;1.90;;
44850;SDS011;30583;48.714;9.386;2023-02-04T00:53:35;5.70;;;2.10;;
44850;SDS011;30583;48.714;9.386;2023-02-04T00:56:00;3.33;;;1.88;;
44850;SDS011;30583;48.714;9.386;2023-02-04T00:58:26;3.47;;;2.05;;
44850;SDS011;30583;48.714;9.386;2023-02-04T01:00:51;4.93;;;2.10;;
44850;SDS011;30583;48.714;9.386;2023-02-04T01:03:17;5.22;;;2.15;;
44850;SDS011;30583;48.714;9.386;2023-02-04T01:05:42;3.05;;;1.90;;
44850;SDS011;30583;48.714;9.386;2023-02-04T01:08:08;5.05;;;2.08;;
44850;SDS011;30583;48.714;9.386;2023-02-04T01:10:34;3.72;;;1.92;;
44850;SDS011;30583;48.714;9.386;2023-02-04T01:12:59;4.38;;;2.30;;
44850;SDS011;30583;48.714;9.386;2023-02-04T01:15:25;4.60;;;2.17;;
44850;SDS011;30583;48.714;9.386;2023-02-04T01:17:51;5.20;;;2.15;;
44850;SDS011;30583;48.714;9.386;2023-02-04T01:20:16;3.60;;;2.05;;
44850;SDS011;30583;48.714;9.386;2023-02-04T01:22:42;4.13;;;2.10;;
44850;SDS011;30583;48.714;9.386;2023-02-04T01:25:07;6.50;;;2.00;;
44850;SDS011;30583;48.714;9.386;2023-02-04T01:27:33;4.80;;;2.28;;
44850;SDS011;30583;48.714;9.386;2023-02-04T01:29:59;4.40;;;1.98;;
44850;SDS011;30583;48.714;9.386;2023-02-04T01:32:24;5.03;;;2.22;;
44850;SDS011;30583;48.714;9.386;2023-02-04T01:34:50;5.25;;;2.03;;
44850;SDS011;30583;48.714;9.386;2023-02-04T01:37:15;2.70;;;1.88;;
44850;SDS011;30583;48.714;9.386;2023-02-04T01:39:42;8.68;;;2.83;;
44850;SDS011;30583;48.714;9.386;2023-02-04T01:42:07;6.63;;;2.22;;
44850;SDS011;30583;48.714;9.386;2023-02-04T01:44:33;4.00;;;2.20;;
44850;SDS011;30583;48.714;9.386;2023-02-04T01:46:59;6.50;;;2.45;;
44850;SDS011;30583;48.714;9.386;2023-02-04T01:49:25;5.30;;;2.13;;
44850;SDS011;30583;48.714;9.386;2023-02-04T01:51:51;8.60;;;4.40;;
44850;SDS011;30583;48.714;9.386;2023-02-04T01:54:16;14.70;;;8.90;;
44850;SDS011;30583;48.714;9.386;2023-02-04T01:56:44;5.82;;;2.80;;
44850;SDS011;30583;48.714;9.386;2023-02-04T01:59:11;3.83;;;2.25;;
44850;SDS011;30583;48.714;9.386;2023-02-04T02:01:42;7.18;;;2.17;;
44850;SDS011;30583;48.714;9.386;2023-02-04T02:04:10;5.78;;;2.95;;
44850;SDS011;30583;48.714;9.386;2023-02-04T02:06:39;5.05;;;2.65;;
44850;SDS011;30583;48.714;9.386;2023-02-04T02:09:11;5.65;;;2.70;;
44850;SDS011;30583;48.714;9.386;2023-02-04T02:11:37;6.10;;;2.53;;
44850;SDS011;30583;48.714;9.386;2023-02-04T02:14:02;7.60;;;2.67;;
44850;SDS011;30583;48.714;9.386;2023-02-04T02:16:28;5.38;;;2.55;;
44850;SDS011;30583;48.714;9.386;2023-02-04T02:18:54;5.03;;;2.38;;
44850;SDS011;30583;48.714;9.386;2023-02-04T02:21:30;5.57;;;2.42;;
44850;SDS011;30583;48.714;9.386;2023-02-04T02:26:50;8.27;;;2.30;;
44850;SDS011;30583;48.714;9.386;2023-02-04T02:29:16;5.20;;;2.00;;
44850;SDS011;30583;48.714;9.386;2023-02-04T02:31:42;6.05;;;2.03;;
44850;SDS011;30583;48.714;9.386;2023-02-04T02:34:08;5.32;;;1.60;;
44850;SDS011;30583;48.714;9.386;2023-02-04T02:36:33;6.22;;;2.08;;
44850;SDS011;30583;48.714;9.386;2023-02-04T02:38:59;5.60;;;2.08;;
44850;SDS011;30583;48.714;9.386;2023-02-04T02:41:25;5.85;;;1.63;;
44850;SDS011;30583;48.714;9.386;2023-02-04T02:43:50;4.55;;;1.60;;
44850;SDS011;30583;48.714;9.386;2023-02-04T02:46:16;4.53;;;1.58;;
44850;SDS011;30583;48.714;9.386;2023-02-04T02:48:41;9.00;;;2.25;;
44850;SDS011;30583;48.714;9.386;2023-02-04T02:51:07;7.00;;;2.10;;
44850;SDS011;30583;48.714;9.386;2023-02-04T02:53:33;4.63;;;1.73;;
44850;SDS011;30583;48.714;9.386;2023-02-04T02:55:59;5.85;;;1.90;;
44850;SDS011;30583;48.714;9.386;2023-02-04T02:58:29;7.30;;;1.73;;
44850;SDS011;30583;48.714;9.386;2023-02-04T03:00:57;8.90;;;4.55;;
44850;SDS011;30583;48.714;9.386;2023-02-04T03:03:29;13.32;;;6.28;;
44850;SDS011;30583;48.714;9.386;2023-02-04T03:06:05;5.75;;;2.35;;
44850;SDS011;30583;48.714;9.386;2023-02-04T03:08:36;7.22;;;2.00;;
44850;SDS011;30583;48.714;9.386;2023-02-04T03:11:02;17.30;;;7.55;;
44850;SDS011;30583;48.714;9.386;2023-02-04T03:13:28;8.85;;;4.18;;
44850;SDS011;30583;48.714;9.386;2023-02-04T03:15:54;13.43;;;3.90;;
44850;SDS011;30583;48.714;9.386;2023-02-04T03:18:20;5.72;;;2.10;;
44850;SDS011;30583;48.714;9.386;2023-02-04T03:20:47;6.65;;;2.03;;
44850;SDS011;30583;48.714;9.386;2023-02-04T03:23:14;4.95;;;1.55;;
44850;SDS011;30583;48.714;9.386;2023-02-04T03:25:40;10.00;;;1.95;;
44850;SDS011;30583;48.714;9.386;2023-02-04T03:28:06;15.15;;;5.82;;
44850;SDS011;30583;48.714;9.386;2023-02-04T03:30:33;12.93;;;8.07;;
44850;SDS011;30583;48.714;9.386;2023-02-04T03:32:58;9.60;;;3.38;;
44850;SDS011;30583;48.714;9.386;2023-02-04T03:35:24;11.88;;;2.63;;
44850;SDS011;30583;48.714;9.386;2023-02-04T03:37:49;9.35;;;2.40;;
44850;SDS011;30583;48.714;9.386;2023-02-04T03:40:15;8.05;;;2.30;;
44850;SDS011;30583;48.714;9.386;2023-02-04T03:42:41;8.32;;;2.53;;
44850;SDS011;30583;48.714;9.386;2023-02-04T03:45:06;11.13;;;2.67;;
44850;SDS011;30583;48.714;9.386;2023-02-04T03:47:32;8.68;;;2.95;;
44850;SDS011;30583;48.714;9.386;2023-02-04T03:49:58;11.23;;;2.63;;
44850;SDS011;30583;48.714;9.386;2023-02-04T03:52:23;6.63;;;2.40;;
44850;SDS011;30583;48.714;9.386;2023-02-04T03:54:49;8.85;;;2.63;;
44850;SDS011;30583;48.714;9.386;2023-02-04T03:57:14;8.77;;;2.85;;
44850;SDS011;30583;48.714;9.386;2023-02-04T03:59:40;7.65;;;2.33;;
44850;SDS011;30583;48.714;9.386;2023-02-04T04:02:06;11.50;;;2.13;;
44850;SDS011;30583;48.714;9.386;2023-02-04T04:04:32;8.18;;;2.08;;
44850;SDS011;30583;48.714;9.386;2023-02-04T04:06:58;7.18;;;2.00;;
44850;SDS011;30583;48.714;9.386;2023-02-04T04:09:23;9.32;;;2.28;;
44850;SDS011;30583;48.714;9.386;2023-02-04T04:11:49;9.40;;;2.10;;
44850;SDS011;30583;48.714;9.386;2023-02-04T04:14:14;12.95;;;2.90;;
44850;SDS011;30583;48.714;9.386;2023-02-04T04:16:40;7.47;;;2.20;;
44850;SDS011;30583;48.714;9.386;2023-02-04T04:19:05;10.68;;;2.45;;
44850;SDS011;30583;48.714;9.386;2023-02-04T04:21:31;9.82;;;2.20;;
44850;SDS011;30583;48.714;9.386;2023-02-04T04:23:57;10.30;;;2.17;;
44850;SDS011;30583;48.714;9.386;2023-02-04T04:26:22;7.97;;;2.08;;
44850;SDS011;30583;48.714;9.386;2023-02-04T04:28:48;6.40;;;2.10;;
44850;SDS011;30583;48.714;9.386;2023-02-04T04:31:13;4.82;;;1.85;;
44850;SDS011;30583;48.714;9.386;2023-02-04T04:33:39;8.25;;;1.95;;
44850;SDS011;30583;48.714;9.386;2023-02-04T04:36:05;5.85;;;2.05;;
44850;SDS011;30583;48.714;9.386;2023-02-04T04:38:31;6.68;;;2.88;;
44850;SDS011;30583;48.714;9.386;2023-02-04T04:40:57;8.45;;;2.03;;
44850;SDS011;30583;48.714;9.386;2023-02-04T04:43:22;4.55;;;1.90;;
44850;SDS011;30583;48.714;9.386;2023-02-04T04:45:48;15.20;;;3.45;;
44850;SDS011;30583;48.714;9.386;2023-02-04T04:48:13;10.10;;;3.00;;
44850;SDS011;30583;48.714;9.386;2023-02-04T04:50:39;7.63;;;1.83;;
44850;SDS011;30583;48.714;9.386;2023-02-04T04:53:04;15.85;;;3.05;;
44850;SDS011;30583;48.714;9.386;2023-02-04T04:55:35;9.38;;;2.17;;
44850;SDS011;30583;48.714;9.386;2023-02-04T04:58:01;8.80;;;2.70;;
44850;SDS011;30583;48.714;9.386;2023-02-04T05:00:27;11.48;;;3.40;;
44850;SDS011;30583;48.714;9.386;2023-02-04T05:02:53;10.50;;;2.30;;
44850;SDS011;30583;48.714;9.386;2023-02-04T05:05:18;10.23;;;2.80;;
44850;SDS011;30583;48.714;9.386;2023-02-04T05:07:44;11.20;;;3.08;;
44850;SDS011;30583;48.714;9.386;2023-02-04T05:10:09;8.77;;;2.20;;
44850;SDS011;30583;48.714;9.386;2023-02-04T05:12:35;5.55;;;1.95;;
44850;SDS011;30583;48.714;9.386;2023-02-04T05:15:00;6.70;;;2.38;;
44850;SDS011;30583;48.714;9.386;2023-02-04T05:17:26;9.95;;;2.53;;
44850;SDS011;30583;48.714;9.386;2023-02-04T05:19:52;11.95;;;2.25;;
44850;SDS011;30583;48.714;9.386;2023-02-04T05:22:17;10.95;;;3.10;;
44850;SDS011;30583;48.714;9.386;2023-02-04T05:24:43;9.60;;;2.65;;
44850;SDS011;30583;48.714;9.386;2023-02-04T05:27:08;11.77;;;2.80;;
44850;SDS011;30583;48.714;9.386;2023-02-04T05:29:34;6.82;;;2.30;;
44850;SDS011;30583;48.714;9.386;2023-02-04T05:31:59;9.98;;;2.70;;
44850;SDS011;30583;48.714;9.386;2023-02-04T05:34:25;10.30;;;2.55;;
44850;SDS011;30583;48.714;9.386;2023-02-04T05:36:50;9.18;;;2.55;;
44850;SDS011;30583;48.714;9.386;2023-02-04T05:39:16;8.13;;;2.72;;
44850;SDS011;30583;48.714;9.386;2023-02-04T05:41:42;9.68;;;3.00;;
44850;SDS011;30583;48.714;9.386;2023-02-04T05:44:07;11.93;;;3.38;;
44850;SDS011;30583;48.714;9.386;2023-02-04T05:46:33;11.13;;;3.05;;
44850;SDS011;30583;48.714;9.386;2023-02-04T05:48:58;8.73;;;3.40;;
44850;SDS011;30583;48.714;9.386;2023-02-04T05:51:24;7.57;;;3.28;;
44850;SDS011;30583;48.714;9.386;2023-02-04T05:53:50;10.38;;;3.50;;
44850;SDS011;30583;48.714;9.386;2023-02-04T05:56:15;9.15;;;3.25;;
44850;SDS011;30583;48.714;9.386;2023-02-04T05:58:41;7.05;;;2.90;;
44850;SDS011;30583;48.714;9.386;2023-02-04T06:01:07;9.73;;;3.00;;
44850;SDS011;30583;48.714;9.386;2023-02-04T06:03:33;8.75;;;2.67;;
44850;SDS011;30583;48.714;9.386;2023-02-04T06:05:59;5.30;;;3.25;;
44850;SDS011;30583;48.714;9.386;2023-02-04T06:08:24;9.15;;;3.42;;
44850;SDS011;30583;48.714;9.386;2023-02-04T06:10:50;8.52;;;3.50;;
44850;SDS011;30583;48.714;9.386;2023-02-04T06:13:15;9.30;;;2.75;;
44850;SDS011;30583;48.714;9.386;2023-02-04T06:15:41;11.55;;;3.30;;
44850;SDS011;30583;48.714;9.386;2023-02-04T06:18:06;10.30;;;3.88;;
44850;SDS011;30583;48.714;9.386;2023-02-04T06:20:32;12.00;;;4.43;;
44850;SDS011;30583;48.714;9.386;2023-02-04T06:22:58;8.82;;;4.40;;
44850;SDS011;30583;48.714;9.386;2023-02-04T06:25:23;10.55;;;4.95;;
44850;SDS011;30583;48.714;9.386;2023-02-04T06:27:49;11.27;;;4.05;;
44850;SDS011;30583;48.714;9.386;2023-02-04T06:30:15;10.38;;;4.70;;
44850;SDS011;30583;48.714;9.386;2023-02-04T06:32:42;12.75;;;4.53;;
44850;SDS011;30583;48.714;9.386;2023-02-04T06:35:08;11.50;;;4.55;;
44850;SDS011;30583;48.714;9.386;2023-02-04T06:37:34;10.07;;;3.65;;
44850;SDS011;30583;48.714;9.386;2023-02-04T06:39:59;11.30;;;3.70;;
44850;SDS011;30583;48.714;9.386;2023-02-04T06:42:25;12.20;;;4.10;;
44850;SDS011;30583;48.714;9.386;2023-02-04T06:44:51;9.52;;;4.05;;
44850;SDS011;30583;48.714;9.386;2023-02-04T06:47:17;11.48;;;3.70;;
44850;SDS011;30583;48.714;9.386;2023-02-04T06:49:43;10.63;;;4.03;;
44850;SDS011;30583;48.714;9.386;2023-02-04T06:52:09;10.25;;;3.67;;
44850;SDS011;30583;48.714;9.386;2023-02-04T06:54:34;10.88;;;4.10;;
44850;SDS011;30583;48.714;9.386;2023-02-04T06:57:00;13.63;;;5.30;;
44850;SDS011;30583;48.714;9.386;2023-02-04T06:59:35;13.18;;;5.57;;
44850;SDS011;30583;48.714;9.386;2023-02-04T07:02:02;12.60;;;4.22;;
44850;SDS011;30583;48.714;9.386;2023-02-04T07:04:29;16.00;;;4.85;;
44850;SDS011;30583;48.714;9.386;2023-02-04T07:06:54;11.57;;;3.97;;
44850;SDS011;30583;48.714;9.386;2023-02-04T07:09:20;9.75;;;3.83;;
44850;SDS011;30583;48.714;9.386;2023-02-04T07:11:46;13.10;;;3.83;;
44850;SDS011;30583;48.714;9.386;2023-02-04T07:14:11;10.82;;;4.30;;
44850;SDS011;30583;48.714;9.386;2023-02-04T07:16:37;12.13;;;3.78;;
44850;SDS011;30583;48.714;9.386;2023-02-04T07:19:02;9.50;;;3.58;;
44850;SDS011;30583;48.714;9.386;2023-02-04T07:21:28;13.43;;;4.22;;
44850;SDS011;30583;48.714;9.386;2023-02-04T07:23:54;10.02;;;4.43;;
44850;SDS011;30583;48.714;9.386;2023-02-04T07:26:19;12.02;;;3.38;;
44850;SDS011;30583;48.714;9.386;2023-02-04T07:28:45;14.45;;;3.90;;
44850;SDS011;30583;48.714;9.386;2023-02-04T07:31:11;10.32;;;3.80;;
44850;SDS011;30583;48.714;9.386;2023-02-04T07:33:36;14.32;;;3.90;;
44850;SDS011;30583;48.714;9.386;2023-02-04T07:36:02;13.30;;;3.55;;
44850;SDS011;30583;48.714;9.386;2023-02-04T07:38:28;14.00;;;3.80;;
44850;SDS011;30583;48.714;9.386;2023-02-04T07:40:53;18.50;;;3.83;;
44850;SDS011;30583;48.714;9.386;2023-02-04T07:43:19;12.40;;;3.67;;
44850;SDS011;30583;48.714;9.386;2023-02-04T07:45:44;9.48;;;3.42;;
44850;SDS011;30583;48.714;9.386;2023-02-04T07:48:10;12.48;;;3.88;;
44850;SDS011;30583;48.714;9.386;2023-02-04T07:50:36;17.00;;;3.83;;
44850;SDS011;30583;48.714;9.386;2023-02-04T07:53:01;14.35;;;3.72;;
44850;SDS011;30583;48.714;9.386;2023-02-04T07:55:27;10.95;;;3.03;;
44850;SDS011;30583;48.714;9.386;2023-02-04T07:57:53;11.70;;;3.67;;
44850;SDS011;30583;48.714;9.386;2023-02-04T08:00:19;14.13;;;3.85;;
44850;SDS011;30583;48.714;9.386;2023-02-04T08:02:45;14.05;;;3.13;;
44850;SDS011;30583;48.714;9.386;2023-02-04T08:05:11;14.65;;;3.30;;
44850;SDS011;30583;48.714;9.386;2023-02-04T08:07:37;9.60;;;3.20;;
44850;SDS011;30583;48.714;9.386;2023-02-04T08:10:03;12.20;;;3.20;;
44850;SDS011;30583;48.714;9.386;2023-02-04T08:12:30;15.40;;;4.20;;
44850;SDS011;30583;48.714;9.386;2023-02-04T08:14:55;11.80;;;3.30;;
44850;SDS011;30583;48.714;9.386;2023-02-04T08:17:21;13.23;;;3.40;;
44850;SDS011;30583;48.714;9.386;2023-02-04T08:19:47;14.30;;;3.60;;
44850;SDS011;30583;48.714;9.386;2023-02-04T08:22:12;15.02;;;3.55;;
44850;SDS011;30583;48.714;9.386;2023-02-04T08:24:38;12.63;;;3.60;;
44850;SDS011;30583;48.714;9.386;2023-02-04T08:27:03;10.30;;;3.35;;
44850;SDS011;30583;48.714;9.386;2023-02-04T08:29:29;10.48;;;3.63;;
44850;SDS011;30583;48.714;9.386;2023-02-04T08:31:54;13.32;;;2.97;;
44850;SDS011;30583;48.714;9.386;2023-02-04T08:34:20;12.18;;;4.15;;
44850;SDS011;30583;48.714;9.386;2023-02-04T08:36:46;15.15;;;3.80;;
44850;SDS011;30583;48.714;9.386;2023-02-04T08:39:11;13.02;;;3.35;;
44850;SDS011;30583;48.714;9.386;2023-02-04T08:41:37;13.38;;;3.40;;
44850;SDS011;30583;48.714;9.386;2023-02-04T08:44:03;9.07;;;3.55;;
44850;SDS011;30583;48.714;9.386;2023-02-04T08:46:29;15.18;;;4.45;;
44850;SDS011;30583;48.714;9.386;2023-02-04T08:48:54;11.73;;;3.30;;
44850;SDS011;30583;48.714;9.386;2023-02-04T08:51:21;14.23;;;4.18;;
44850;SDS011;30583;48.714;9.386;2023-02-04T08:53:47;14.32;;;3.50;;
44850;SDS011;30583;48.714;9.386;2023-02-04T08:56:12;13.50;;;3.47;;
44850;SDS011;30583;48.714;9.386;2023-02-04T08:58:40;10.18;;;2.75;;
44850;SDS011;30583;48.714;9.386;2023-02-04T09:01:06;13.02;;;3.38;;
44850;SDS011;30583;48.714;9.386;2023-02-04T09:03:32;12.63;;;3.45;;
44850;SDS011;30583;48.714;9.386;2023-02-04T09:05:58;11.90;;;3.88;;
44850;SDS011;30583;48.714;9.386;2023-02-04T09:08:23;10.77;;;3.42;;
44850;SDS011;30583;48.714;9.386;2023-02-04T09:10:49;12.95;;;3.42;;
44850;SDS011;30583;48.714;9.386;2023-02-04T09:13:14;13.70;;;4.22;;
44850;SDS011;30583;48.714;9.386;2023-02-04T09:15:40;14.18;;;3.55;;
44850;SDS011;30583;48.714;9.386;2023-02-04T09:18:06;19.42;;;3.80;;
44850;SDS011;30583;48.714;9.386;2023-02-04T09:20:40;7.80;;;2.67;;
44850;SDS011;30583;48.714;9.386;2023-02-04T09:23:06;10.27;;;2.97;;
44850;SDS011;30583;48.714;9.386;2023-02-04T09:25:33;14.93;;;3.50;;
44850;SDS011;30583;48.714;9.386;2023-02-04T09:27:59;13.18;;;3.30;;
44850;SDS011;30583;48.714;9.386;2023-02-04T09:30:25;11.82;;;3.22;;
44850;SDS011;30583;48.714;9.386;2023-02-04T09:32:50;14.23;;;3.38;;
44850;SDS011;30583;48.714;9.386;2023-02-04T09:35:16;13.90;;;3.60;;
44850;SDS011;30583;48.714;9.386;2023-02-04T09:37:41;10.95;;;2.90;;
44850;SDS011;30583;48.714;9.386;2023-02-04T09:40:08;16.58;;;3.15;;
44850;SDS011;30583;48.714;9.386;2023-02-04T09:42:38;12.02;;;2.45;;
44850;SDS011;30583;48.714;9.386;2023-02-04T09:45:04;14.05;;;2.72;;
44850;SDS011;30583;48.714;9.386;2023-02-04T09:47:31;16.83;;;2.90;;
44850;SDS011;30583;48.714;9.386;2023-02-04T09:49:56;15.52;;;3.60;;
44850;SDS011;30583;48.714;9.386;2023-02-04T09:52:22;19.95;;;4.90;;
44850;SDS011;30583;48.714;9.386;2023-02-04T09:54:49;19.17;;;3.10;;
44850;SDS011;30583;48.714;9.386;2023-02-04T09:57:16;15.85;;;3.13;;
44850;SDS011;30583;48.714;9.386;2023-02-04T09:59:43;14.52;;;3.55;;
44850;SDS011;30583;48.714;9.386;2023-02-04T10:02:13;13.13;;;2.65;;
44850;SDS011;30583;48.714;9.386;2023-02-04T10:04:46;18.45;;;3.58;;
44850;SDS011;30583;48.714;9.386;2023-02-04T10:07:12;14.35;;;2.65;;
44850;SDS011;30583;48.714;9.386;2023-02-04T10:09:41;13.63;;;2.58;;
44850;SDS011;30583;48.714;9.386;2023-02-04T10:12:06;14.65;;;2.92;;
44850;SDS011;30583;48.714;9.386;2023-02-04T10:14:32;14.65;;;3.08;;
44850;SDS011;30583;48.714;9.386;2023-02-04T10:16:58;12.85;;;3.35;;
44850;SDS011;30583;48.714;9.386;2023-02-04T10:19:25;12.98;;;2.60;;
44850;SDS011;30583;48.714;9.386;2023-02-04T10:21:53;11.65;;;2.50;;
44850;SDS011;30583;48.714;9.386;2023-02-04T10:24:20;12.02;;;2.95;;
44850;SDS011;30583;48.714;9.386;2023-02-04T10:26:51;12.77;;;3.00;;
44850;SDS011;30583;48.714;9.386;2023-02-04T10:29:18;17.08;;;3.28;;
44850;SDS011;30583;48.714;9.386;2023-02-04T10:31:48;15.63;;;2.97;;
44850;SDS011;30583;48.714;9.386;2023-02-04T10:34:16;17.65;;;3.55;;
44850;SDS011;30583;48.714;9.386;2023-02-04T10:36:50;21.90;;;5.07;;
44850;SDS011;30583;48.714;9.386;2023-02-04T10:39:30;15.02;;;2.88;;
44850;SDS011;30583;48.714;9.386;2023-02-04T10:42:17;14.35;;;2.45;;
44850;SDS011;30583;48.714;9.386;2023-02-04T10:44:45;12.32;;;3.00;;
44850;SDS011;30583;48.714;9.386;2023-02-04T10:47:16;14.10;;;2.20;;
44850;SDS011;30583;48.714;9.386;2023-02-04T10:49:50;11.20;;;2.45;;
44850;SDS011;30583;48.714;9.386;2023-02-04T10:52:35;15.23;;;3.33;;
44850;SDS011;30583;48.714;9.386;2023-02-04T10:55:03;11.45;;;2.22;;
44850;SDS011;30583;48.714;9.386;2023-02-04T10:57:33;11.07;;;3.00;;
44850;SDS011;30583;48.714;9.386;2023-02-04T11:00:03;9.43;;;2.45;;
44850;SDS011;30583;48.714;9.386;2023-02-04T11:05:23;13.80;;;3.10;;
44850;SDS011;30583;48.714;9.386;2023-02-04T11:07:53;12.93;;;4.00;;
44850;SDS011;30583;48.714;9.386;2023-02-04T11:10:20;11.52;;;2.58;;
44850;SDS011;30583;48.714;9.386;2023-02-04T11:20:46;12.60;;;3.05;;
44850;SDS011;30583;48.714;9.386;2023-02-04T11:23:14;11.35;;;2.13;;
44850;SDS011;30583;48.714;9.386;2023-02-04T11:25:49;10.05;;;2.00;;
44850;SDS011;30583;48.714;9.386;2023-02-04T11:28:49;13.25;;;2.38;;
44850;SDS011;30583;48.714;9.386;2023-02-04T11:33:45;18.15;;;2.50;;
44850;SDS011;30583;48.714;9.386;2023-02-04T11:36:13;10.05;;;2.85;;
44850;SDS011;30583;48.714;9.386;2023-02-04T11:38:43;17.05;;;2.90;;
44850;SDS011;30583;48.714;9.386;2023-02-04T11:41:14;17.80;;;4.63;;
44850;SDS011;30583;48.714;9.386;2023-02-04T11:43:49;18.10;;;3.80;;
44850;SDS011;30583;48.714;9.386;2023-02-04T11:46:16;15.52;;;3.10;;
44850;SDS011;30583;48.714;9.386;2023-02-04T11:48:42;14.85;;;2.53;;
44850;SDS011;30583;48.714;9.386;2023-02-04T11:51:11;13.75;;;2.63;;
44850;SDS011;30583;48.714;9.386;2023-02-04T11:53:39;10.20;;;2.22;;
44850;SDS011;30583;48.714;9.386;2023-02-04T11:56:04;10.90;;;2.08;;
44850;SDS011;30583;48.714;9.386;2023-02-04T11:58:30;12.07;;;2.63;;
44850;SDS011;30583;48.714;9.386;2023-02-04T12:00:56;12.30;;;2.60;;
44850;SDS011;30583;48.714;9.386;2023-02-04T12:03:28;11.85;;;2.22;;
44850;SDS011;30583;48.714;9.386;2023-02-04T12:05:58;14.18;;;2.75;;
44850;SDS011;30583;48.714;9.386;2023-02-04T12:08:31;10.93;;;2.05;;
44850;SDS011;30583;48.714;9.386;2023-02-04T12:11:11;13.85;;;2.58;;
44850;SDS011;30583;48.714;9.386;2023-02-04T12:13:50;16.35;;;2.80;;
44850;SDS011;30583;48.714;9.386;2023-02-04T12:16:19;11.25;;;2.72;;
44850;SDS011;30583;48.714;9.386;2023-02-04T12:18:45;14.00;;;3.00;;
44850;SDS011;30583;48.714;9.386;2023-02-04T12:21:10;15.10;;;2.80;;
44850;SDS011;30583;48.714;9.386;2023-02-04T12:23:38;11.00;;;2.80;;
44850;SDS011;30583;48.714;9.386;2023-02-04T12:26:04;11.52;;;2.30;;
44850;SDS011;30583;48.714;9.386;2023-02-04T12:28:29;10.40;;;3.03;;
44850;SDS011;30583;48.714;9.386;2023-02-04T12:30:55;11.38;;;3.42;;
44850;SDS011;30583;48.714;9.386;2023-02-04T12:33:20;13.85;;;2.70;;
44850;SDS011;30583;48.714;9.386;2023-02-04T12:35:47;11.35;;;2.53;;
44850;SDS011;30583;48.714;9.386;2023-02-04T12:38:12;14.32;;;3.95;;
44850;SDS011;30583;48.714;9.386;2023-02-04T12:40:38;12.52;;;3.05;;
44850;SDS011;30583;48.714;9.386;2023-02-04T12:43:04;9.90;;;2.47;;
44850;SDS011;30583;48.714;9.386;2023-02-04T12:45:30;15.10;;;2.97;;
44850;SDS011;30583;48.714;9.386;2023-02-04T12:47:56;12.63;;;2.88;;
44850;SDS011;30583;48.714;9.386;2023-02-04T12:50:21;15.70;;;4.28;;
44850;SDS011;30583;48.714;9.386;2023-02-04T12:52:51;9.88;;;2.72;;
44850;SDS011;30583;48.714;9.386;2023-02-04T12:55:18;11.77;;;5.55;;
44850;SDS011;30583;48.714;9.386;2023-02-04T12:57:44;11.30;;;2.70;;
44850;SDS011;30583;48.714;9.386;2023-02-04T13:00:10;11.02;;;3.05;;
44850;SDS011;30583;48.714;9.386;2023-02-04T13:02:37;11.80;;;2.53;;
44850;SDS011;30583;48.714;9.386;2023-02-04T13:05:02;10.82;;;2.85;;
44850;SDS011;30583;48.714;9.386;2023-02-04T13:07:28;14.68;;;3.75;;
44850;SDS011;30583;48.714;9.386;2023-02-04T13:09:54;10.93;;;2.50;;
44850;SDS011;30583;48.714;9.386;2023-02-04T13:12:19;14.45;;;3.17;;
44850;SDS011;30583;48.714;9.386;2023-02-04T13:14:45;11.15;;;2.55;;
44850;SDS011;30583;48.714;9.386;2023-02-04T13:17:10;9.95;;;2.15;;
44850;SDS011;30583;48.714;9.386;2023-02-04T13:19:36;8.93;;;2.08;;
44850;SDS011;30583;48.714;9.386;2023-02-04T13:22:02;13.30;;;2.47;;
44850;SDS011;30583;48.714;9.386;2023-02-04T13:24:27;15.05;;;5.72;;
44850;SDS011;30583;48.714;9.386;2023-02-04T13:26:53;14.65;;;2.97;;
44850;SDS011;30583;48.714;9.386;2023-02-04T13:29:19;11.30;;;2.60;;
44850;SDS011;30583;48.714;9.386;2023-02-04T13:31:45;14.32;;;2.90;;
44850;SDS011;30583;48.714;9.386;2023-02-04T13:34:12;7.93;;;2.40;;
44850;SDS011;30583;48.714;9.386;2023-02-04T13:36:37;13.45;;;2.88;;
44850;SDS011;30583;48.714;9.386;2023-02-04T13:39:03;11.80;;;2.35;;
44850;SDS011;30583;48.714;9.386;2023-02-04T13:41:29;14.38;;;2.50;;
44850;SDS011;30583;48.714;9.386;2023-02-04T13:43:55;12.20;;;2.65;;
44850;SDS011;30583;48.714;9.386;2023-02-04T13:46:21;9.50;;;2.10;;
44850;SDS011;30583;48.714;9.386;2023-02-04T13:48:47;12.43;;;2.50;;
44850;SDS011;30583;48.714;9.386;2023-02-04T13:51:14;7.20;;;1.90;;
44850;SDS011;30583;48.714;9.386;2023-02-04T13:53:40;14.00;;;2.50;;
44850;SDS011;30583;48.714;9.386;2023-02-04T13:56:06;12.25;;;2.40;;
44850;SDS011;30583;48.714;9.386;2023-02-04T13:58:32;10.75;;;2.20;;
44850;SDS011;30583;48.714;9.386;2023-02-04T14:00:57;10.02;;;2.45;;
44850;SDS011;30583;48.714;9.386;2023-02-04T14:03:23;10.35;;;2.47;;
44850;SDS011;30583;48.714;9.386;2023-02-04T14:05:50;8.75;;;2.03;;
44850;SDS011;30583;48.714;9.386;2023-02-04T14:08:16;11.23;;;2.10;;
44850;SDS011;30583;48.714;9.386;2023-02-04T14:10:42;10.77;;;2.28;;
44850;SDS011;30583;48.714;9.386;2023-02-04T14:13:07;10.82;;;2.33;;
44850;SDS011;30583;48.714;9.386;2023-02-04T14:15:33;10.70;;;2.50;;
44850;SDS011;30583;48.714;9.386;2023-02-04T14:17:59;13.52;;;2.67;;
44850;SDS011;30583;48.714;9.386;2023-02-04T14:20:25;13.88;;;2.92;;
44850;SDS011;30583;48.714;9.386;2023-02-04T14:22:51;11.05;;;2.90;;
44850;SDS011;30583;48.714;9.386;2023-02-04T14:25:16;12.35;;;3.70;;
44850;SDS011;30583;48.714;9.386;2023-02-04T14:27:42;13.63;;;2.65;;
44850;SDS011;30583;48.714;9.386;2023-02-04T14:30:18;10.52;;;2.35;;
44850;SDS011;30583;48.714;9.386;2023-02-04T14:32:45;12.68;;;3.17;;
44850;SDS011;30583;48.714;9.386;2023-02-04T14:35:11;13.52;;;2.60;;
44850;SDS011;30583;48.714;9.386;2023-02-04T14:37:38;9.63;;;2.20;;
44850;SDS011;30583;48.714;9.386;2023-02-04T14:40:03;11.10;;;3.53;;
44850;SDS011;30583;48.714;9.386;2023-02-04T14:42:30;8.77;;;2.83;;
44850;SDS011;30583;48.714;9.386;2023-02-04T14:44:56;13.55;;;2.70;;
44850;SDS011;30583;48.714;9.386;2023-02-04T14:47:21;10.20;;;3.03;;
44850;SDS011;30583;48.714;9.386;2023-02-04T14:49:47;13.75;;;2.88;;
44850;SDS011;30583;48.714;9.386;2023-02-04T14:52:13;12.43;;;2.60;;